Scroll down
FLIGHT INFORMATION
United Parcel Service (UPS)

UPS34

At Arrival Gate

PHNL
 YSSY
DATE: 2020-09-21
GATE: D
GATE DEPARTURE: 20:05
TAKEOFF: 20:19
DATE: 2020-09-22
GATE: CARGO 3
LANDING: 05:53
GATE ARRIVAL: 05:59
FLIGHT DATA
Crew: 
Speed: 
517 kts
Altitude: 
36,016 ft
Stage Length: 
4,411.5 nm
Block Time: 
9.9 hrs
Flight Time: 
9.6 hrs
Fuel Used: 
235,297 lb
Cleared Route: PHNL CARRP BARKR ADOWA ARVII ADISN ARTOP AKUMO ATRAS SON 20S63 23S60 25S58 MEPEM SAVER SCOTT GOMOL APAGI TESSI ADMAR SANAD MEHAN CORKY SADLO BOREE TESAT YSSY
TRACK DATA
50,000 ft 1,000 kts
AIRCRAFT INFO AND CUMULATIVE STATS
Aircraft Type: 
B744BCF
Registration: 
SELCAL: 
AEDR
MSN/LN: 
26062 / 1016
Total Flights: 
3
Total Block Time: 
27.9 hrs
Total Flight Time: 
27.3 hrs
Total Fuel Used: 
630,474 lb
DATALINK LOG | Newest first | Current as of: 2022-10-04 21:03:37
LABEL SEQUENCE CONTENT Dn/Up
5Z331922 SEP 20 06:00:46z / FLT DECK GOOD / ACF POS GOOD / GRND SERVICES GOOD / MAINT GOOD▼ Dn
QD321805:59 55.3▼ Dn
QC261405:53▼ Dn
GA5559CARGO STAND CARGO 3▲ Up
GR5548YSSY 05:44 MAAS YP/UM WCHR/S/C HI-VAL NO DIPL/VIP NO▼ Dn
2U2129YSSY 220531Z 30017G27KT CAVOK 27/M02 Q1007▲ Up
2S5347YSSY▼ Dn
DM480250ADISN 23:19z FL320 ARTOP 00:06z AKUMO M0.84 199.5 -36 / YSSY 05:49z▼ Dn
5R0250ADISN 23:19z FL320 ARTOP 00:06z AKUMO M0.84 199.5 -36 / YSSY 05:49z▼ Dn
UM203848CLEARED TO FL 320▲ Up
DM63838REQUEST FL 320 DUE TO A/C PERF▼ Dn
QB193920:19▼ Dn
QA052620:05 290.6▼ Dn
5Z531421 SEP 20 19:53:08z / FLT DECK GOOD / ACF POS GOOD / GRND SERVICES GOOD / MAINT GOOD▼ Dn
A34212CLEARED TO YSSY VIA OPIHI2 CARRP BARKR B474 ADOWA B474 ARVII B474 SON 20S163E 23S160E 25S158E MEPEM SAVER SCOTT GOMOL Q53 APAGI H91 CORKY H12 TESAT. SQUAWK .▲ Up
B34203PHNL YSSY UPS34 N579UP ▼ Dn
2U4000PHNL 211853Z 03009KT 10SM FEW026 SCT044 24/20 A3004 RMK AO2 SLP172 T02390200▲ Up
2S4001PHNL▼ Dn
A73900CLEARANCE AVAIL WITHIN 0:25 OF EDT▲ Up
B33900PHNL YSSY UPS34 N579UP ▼ Dn
Q03759[LINK ACK]▲ Up
Q03759[LINK TEST]▼ Dn


AIRCRAFT HISTORY
FLIGHT DATE FLIGHT NO. ORIGIN DESTINATION CLEARED ROUTE BLOCK TIME FLIGHT TIME FUEL USED PILOT
2020-09-21UPS34PHNL YSSY PHNL CARRP BARKR ADOWA ARVII ADISN ARTOP AKUMO ATRAS SON 20S63 23S60 25S58 MEPEM SAVER SCOTT GOMOL APAGI TESSI ADMAR SANAD MEHAN CORKY SADLO BOREE TESAT YSSY9.9 hrs9.6 hrs235,297 lbAnton Vind
2020-07-26UPS2348YSSY PHNL YSSY DIPSO GUTIV ABARB 3032S15733E 2438S16254E 2431S16300E 2103S16546E 1737S16821E 1023S17341E 0612S17632E 0156S17921E 0103S18000E 0018S17927W 0559N17423W 0906N17134W 1231N16801W 1541N16411W 1818N16039W CARRP PHNL9.4 hrs9.2 hrs218,367 lbMichael Roth
2020-07-24UPS312VHHH YSSY VHHH PORPA TD OCEAN SKATE GRUPA SABNO MAVRA AKOTA IBOBI REKEL LEGED TOKON PALOS MARAN KALAH MASUN ZAM TANAL MOLLY BONDA AMN GUTEV IGOPO DUMAV EGORE RUVAP TASHA SARIK TAVEV VILOL MIMIB ONIVI AGETA QDI SCO CORKY SADLO BOREE YSSY8.6 hrs8.5 hrs176,810 lbMichael Roth